createdAt,value
2023-03-21T00:00:04.456Z,2061.00
2023-03-21T00:04:04.477Z,2055.00
2023-03-21T00:08:04.467Z,2055.00
2023-03-21T00:12:04.393Z,2045.00
2023-03-21T00:16:04.757Z,2021.00
2023-03-21T00:20:05.417Z,2047.00
2023-03-21T00:24:04.386Z,2029.00
2023-03-21T00:28:08.365Z,2027.00
2023-03-21T00:32:04.243Z,2031.00
2023-03-21T00:36:05.729Z,2035.00
2023-03-21T00:40:04.516Z,2029.00
2023-03-21T00:44:04.199Z,2010.00
2023-03-21T00:48:04.300Z,2015.00
2023-03-21T00:52:30.526Z,2006.00
2023-03-21T00:56:05.105Z,2011.00
2023-03-21T01:00:04.037Z,2000.00
2023-03-21T01:04:04.028Z,1997.00
2023-03-21T01:08:08.137Z,1988.00
2023-03-21T01:12:04.925Z,2002.00
2023-03-21T01:16:03.949Z,1996.00
2023-03-21T01:20:03.850Z,1972.00
2023-03-21T01:24:03.980Z,1985.00
2023-03-21T01:28:03.789Z,1982.00
2023-03-21T01:32:03.711Z,1956.00
2023-03-21T01:36:12.849Z,1969.00
2023-03-21T01:40:04.684Z,1964.00
2023-03-21T01:44:03.667Z,1973.00
2023-03-21T01:48:03.588Z,1950.00
2023-03-21T01:52:11.896Z,1951.00
2023-03-21T01:56:04.502Z,1946.00
2023-03-21T02:00:03.466Z,1944.00
2023-03-21T02:04:03.568Z,1935.00
2023-03-21T02:08:03.439Z,1926.00
2023-03-21T02:12:03.380Z,1926.00
2023-03-21T02:16:03.392Z,1926.00
2023-03-21T02:20:03.364Z,1930.00
2023-03-21T02:24:03.505Z,1917.00
2023-03-21T02:28:03.557Z,1889.00
2023-03-21T02:32:17.847Z,1898.00
2023-03-21T02:36:13.640Z,1904.00
2023-03-21T02:40:04.611Z,1889.00
2023-03-21T02:44:03.539Z,1913.00
2023-03-21T02:48:04.154Z,1906.00
2023-03-21T02:52:14.453Z,1881.00
2023-03-21T02:56:04.461Z,1892.00
2023-03-21T03:00:15.549Z,1871.00
2023-03-21T03:04:04.399Z,1879.00
2023-03-21T03:08:03.370Z,1877.00
2023-03-21T03:12:03.292Z,1873.00
2023-03-21T03:16:03.306Z,1872.00
2023-03-21T03:20:15.153Z,1871.00
2023-03-21T03:24:04.182Z,1862.00
2023-03-21T03:28:03.163Z,1886.00
2023-03-21T03:34:09.396Z,500.00
2023-03-21T03:38:09.322Z,501.00
2023-03-21T03:42:25.454Z,511.00
2023-03-21T03:46:10.249Z,508.00
2023-03-21T03:50:09.220Z,503.00
2023-03-21T03:54:09.162Z,513.00
2023-03-21T03:58:21.144Z,513.00
2023-03-21T04:02:10.150Z,509.00
2023-03-21T04:06:09.089Z,508.00
2023-03-21T04:10:09.023Z,515.00
2023-03-21T04:14:08.983Z,511.00
2023-03-21T04:18:08.955Z,508.00
2023-03-21T04:22:08.892Z,507.00
2023-03-21T04:26:08.846Z,505.00
2023-03-21T04:30:08.868Z,507.00
2023-03-21T04:34:08.883Z,511.00
2023-03-21T04:38:08.886Z,507.00
2023-03-21T04:42:09.003Z,510.00
2023-03-21T04:46:09.096Z,506.00
2023-03-21T04:50:09.051Z,511.00
2023-03-21T04:54:10.162Z,507.00
2023-03-21T04:58:09.159Z,503.00
2023-03-21T05:02:09.209Z,504.00
2023-03-21T05:06:09.346Z,503.00
2023-03-21T05:10:09.484Z,505.00
2023-03-21T05:14:09.604Z,505.00
2023-03-21T05:18:09.749Z,504.00
2023-03-21T05:22:09.891Z,508.00
2023-03-21T05:26:10.057Z,500.00
2023-03-21T05:30:10.127Z,503.00
2023-03-21T05:34:10.253Z,501.00
2023-03-21T05:38:10.348Z,504.00
2023-03-21T05:42:10.463Z,501.00
2023-03-21T05:46:10.633Z,511.00
2023-03-21T05:50:10.671Z,512.00
2023-03-21T05:54:10.686Z,514.00
2023-03-21T05:58:10.926Z,518.00
2023-03-21T06:02:10.958Z,500.00
2023-03-21T06:06:11.127Z,502.00
2023-03-21T06:10:11.070Z,520.00
2023-03-21T06:14:11.122Z,539.00
2023-03-21T06:18:11.105Z,507.00
2023-03-21T06:22:10.998Z,515.00
2023-03-21T06:26:10.947Z,517.00
2023-03-21T06:30:10.951Z,503.00
2023-03-21T06:34:10.832Z,500.00
2023-03-21T06:38:10.831Z,537.00
2023-03-21T06:42:10.816Z,535.00
2023-03-21T06:46:11.178Z,577.00
2023-03-21T06:50:10.747Z,616.00
2023-03-21T06:54:10.672Z,634.00
2023-03-21T06:58:10.622Z,656.00
2023-03-21T07:02:10.613Z,794.00
2023-03-21T07:06:10.634Z,1333.00
2023-03-21T07:10:10.908Z,1648.00
2023-03-21T07:14:10.928Z,1887.00
2023-03-21T07:18:11.178Z,2142.00
2023-03-21T07:22:11.309Z,2330.00
2023-03-21T07:26:11.322Z,2388.00
2023-03-21T07:30:11.405Z,2472.00
2023-03-21T07:34:11.417Z,2250.00
2023-03-21T07:38:11.547Z,2296.00
2023-03-21T07:42:11.650Z,1976.00
2023-03-21T07:46:11.786Z,1943.00
2023-03-21T07:50:12.204Z,1594.00
2023-03-21T07:54:12.136Z,1578.00
2023-03-21T07:58:12.169Z,1465.00
2023-03-21T08:02:12.392Z,1421.00
2023-03-21T08:06:12.439Z,1439.00
2023-03-21T08:10:12.540Z,1402.00
2023-03-21T08:14:12.730Z,1398.00
2023-03-21T08:18:12.556Z,1344.00
2023-03-21T08:22:12.481Z,1273.00
2023-03-21T08:26:12.443Z,1203.00
2023-03-21T08:30:12.491Z,1086.00
2023-03-21T08:34:12.392Z,1065.00
2023-03-21T08:38:12.317Z,1016.00
2023-03-21T08:42:12.280Z,939.00
2023-03-21T08:46:12.322Z,871.00
2023-03-21T08:50:12.248Z,812.00
2023-03-21T08:54:12.210Z,738.00
2023-03-21T08:58:12.185Z,690.00
2023-03-21T09:02:12.180Z,665.00
2023-03-21T09:06:12.104Z,648.00
2023-03-21T09:10:21.059Z,635.00
2023-03-21T09:14:13.016Z,625.00
2023-03-21T09:18:11.989Z,626.00
2023-03-21T09:22:11.961Z,589.00
2023-03-21T09:26:11.894Z,581.00
2023-03-21T09:30:11.860Z,572.00
2023-03-21T09:34:11.955Z,550.00
2023-03-21T09:38:11.831Z,510.00
2023-03-21T09:42:14.209Z,501.00
2023-03-21T09:46:11.984Z,508.00
2023-03-21T09:50:15.085Z,501.00
2023-03-21T09:54:11.802Z,507.00
2023-03-21T09:58:11.691Z,513.00
2023-03-21T10:02:11.671Z,523.00
2023-03-21T10:06:11.634Z,526.00
2023-03-21T10:10:11.769Z,547.00
2023-03-21T10:14:11.594Z,550.00
2023-03-21T10:18:11.516Z,559.00
2023-03-21T10:22:11.497Z,541.00
2023-03-21T10:26:14.765Z,547.00
2023-03-21T10:30:12.467Z,546.00
2023-03-21T10:34:11.783Z,539.00
2023-03-21T10:38:11.754Z,558.00
2023-03-21T10:42:11.315Z,536.00
2023-03-21T10:46:11.358Z,513.00
2023-03-21T10:50:11.684Z,505.00
2023-03-21T10:54:11.556Z,500.00
2023-03-21T10:58:11.538Z,501.00
2023-03-21T11:02:11.539Z,507.00
2023-03-21T11:06:11.480Z,500.00
2023-03-21T11:10:14.616Z,500.00
2023-03-21T11:14:12.765Z,528.00
2023-03-21T11:18:11.358Z,571.00
2023-03-21T11:22:11.526Z,601.00
2023-03-21T11:26:11.726Z,630.00
2023-03-21T11:30:11.909Z,639.00
2023-03-21T11:34:12.051Z,671.00
2023-03-21T11:38:12.276Z,659.00
2023-03-21T11:42:12.414Z,661.00
2023-03-21T11:46:12.800Z,683.00
2023-03-21T11:50:12.739Z,734.00
2023-03-21T11:54:13.006Z,736.00
2023-03-21T11:58:14.862Z,716.00
2023-03-21T12:02:13.304Z,739.00
2023-03-21T12:06:13.390Z,759.00
2023-03-21T12:10:13.520Z,741.00
2023-03-21T12:14:13.686Z,727.00
2023-03-21T12:18:14.288Z,734.00
2023-03-21T12:22:13.993Z,757.00
2023-03-21T12:26:14.185Z,741.00
2023-03-21T12:30:14.617Z,756.00
2023-03-21T12:34:14.558Z,791.00
2023-03-21T12:38:14.707Z,809.00
2023-03-21T12:42:14.891Z,803.00
2023-03-21T12:46:15.227Z,802.00
2023-03-21T12:50:15.326Z,820.00
2023-03-21T12:54:15.419Z,792.00
2023-03-21T12:58:15.621Z,792.00
2023-03-21T13:02:15.946Z,842.00
2023-03-21T13:06:15.800Z,835.00
2023-03-21T13:10:15.766Z,814.00
2023-03-21T13:14:15.726Z,883.00
2023-03-21T13:18:15.780Z,951.00
2023-03-21T13:22:15.694Z,936.00
2023-03-21T13:26:15.610Z,917.00
2023-03-21T13:30:15.613Z,913.00
2023-03-21T13:34:15.647Z,946.00
2023-03-21T13:38:15.553Z,945.00
2023-03-21T13:42:15.514Z,895.00
2023-03-21T13:46:15.686Z,884.00
2023-03-21T13:50:15.787Z,889.00
2023-03-21T13:54:15.865Z,851.00
2023-03-21T13:58:15.930Z,822.00
2023-03-21T14:02:16.035Z,816.00
2023-03-21T14:06:16.088Z,804.00
2023-03-21T14:10:16.117Z,782.00
2023-03-21T14:14:16.139Z,768.00
2023-03-21T14:18:27.731Z,742.00
2023-03-21T14:22:17.236Z,755.00
2023-03-21T14:26:16.107Z,747.00
2023-03-21T14:30:16.097Z,749.00
2023-03-21T14:34:16.074Z,741.00
2023-03-21T14:38:16.101Z,737.00
2023-03-21T14:42:15.980Z,735.00
2023-03-21T14:46:16.084Z,737.00
2023-03-21T14:50:16.070Z,727.00
2023-03-21T14:54:16.162Z,739.00
2023-03-21T14:58:16.133Z,737.00
2023-03-21T15:02:16.243Z,726.00
2023-03-21T15:06:16.204Z,715.00
2023-03-21T15:10:16.286Z,719.00
2023-03-21T15:14:16.211Z,721.00
2023-03-21T15:18:16.285Z,703.00
2023-03-21T15:22:16.314Z,709.00
2023-03-21T15:26:16.399Z,699.00
2023-03-21T15:30:16.376Z,693.00
2023-03-21T15:34:16.392Z,710.00
2023-03-21T15:38:16.448Z,710.00
2023-03-21T15:42:16.544Z,693.00
2023-03-21T15:46:16.630Z,693.00
2023-03-21T15:50:17.407Z,706.00
2023-03-21T15:54:16.636Z,698.00
2023-03-21T15:58:16.799Z,697.00
2023-03-21T16:02:16.897Z,661.00
2023-03-21T16:06:16.814Z,662.00
2023-03-21T16:10:16.935Z,682.00
2023-03-21T16:14:17.069Z,661.00
2023-03-21T16:18:17.143Z,660.00
2023-03-21T16:22:17.159Z,653.00
2023-03-21T16:26:17.320Z,647.00
2023-03-21T16:30:17.406Z,657.00
2023-03-21T16:34:17.442Z,654.00
2023-03-21T16:38:17.561Z,646.00
2023-03-21T16:42:17.673Z,652.00
2023-03-21T16:46:17.815Z,656.00
2023-03-21T16:50:17.904Z,659.00
2023-03-21T16:54:18.082Z,660.00
2023-03-21T16:58:18.172Z,674.00
2023-03-21T17:02:18.296Z,655.00
2023-03-21T17:06:18.467Z,664.00
2023-03-21T17:10:18.933Z,657.00
2023-03-21T17:14:18.935Z,659.00
2023-03-21T17:18:19.046Z,656.00
2023-03-21T17:22:19.265Z,649.00
2023-03-21T17:26:19.485Z,647.00
2023-03-21T17:30:19.782Z,646.00
2023-03-21T17:34:19.910Z,640.00
2023-03-21T17:38:20.136Z,646.00
2023-03-21T17:42:20.097Z,652.00
2023-03-21T17:46:20.056Z,645.00
2023-03-21T17:50:19.984Z,641.00
2023-03-21T17:54:20.418Z,639.00
2023-03-21T17:58:19.902Z,639.00
2023-03-21T18:02:19.936Z,638.00
2023-03-21T18:06:19.918Z,646.00
2023-03-21T18:10:19.803Z,649.00
2023-03-21T18:14:26.325Z,637.00
2023-03-21T18:18:20.717Z,643.00
2023-03-21T18:22:19.708Z,647.00
2023-03-21T18:26:19.808Z,642.00
2023-03-21T18:30:44.585Z,636.00
2023-03-21T18:34:20.693Z,645.00
2023-03-21T18:38:19.630Z,637.00
2023-03-21T18:42:21.862Z,633.00
2023-03-21T18:46:19.560Z,637.00
2023-03-21T18:50:19.485Z,631.00
2023-03-21T18:54:19.497Z,650.00
2023-03-21T18:58:19.423Z,646.00
2023-03-21T19:02:19.368Z,659.00
2023-03-21T19:06:19.373Z,645.00
2023-03-21T19:10:20.332Z,662.00
2023-03-21T19:14:19.294Z,642.00
2023-03-21T19:18:52.031Z,618.00
2023-03-21T19:22:20.166Z,608.00
2023-03-21T19:26:19.166Z,587.00
2023-03-21T19:30:19.733Z,580.00
2023-03-21T19:34:19.057Z,557.00
2023-03-21T19:38:19.075Z,543.00
2023-03-21T19:42:19.036Z,542.00
2023-03-21T19:46:18.987Z,577.00
2023-03-21T19:54:20.013Z,585.00
2023-03-21T19:58:18.919Z,587.00
2023-03-21T20:02:35.155Z,595.00
2023-03-21T20:06:19.933Z,600.00
2023-03-21T20:10:18.777Z,614.00
2023-03-21T20:14:18.740Z,619.00
2023-03-21T20:18:18.698Z,625.00
2023-03-21T20:22:27.174Z,631.00
2023-03-21T20:26:19.674Z,633.00
2023-03-21T20:30:18.624Z,636.00
2023-03-21T20:34:18.579Z,632.00
2023-03-21T20:38:18.564Z,643.00
2023-03-21T20:42:18.514Z,628.00
2023-03-21T20:46:18.621Z,613.00
2023-03-21T20:50:18.444Z,615.00
2023-03-21T20:54:18.390Z,605.00
2023-03-21T20:58:44.409Z,608.00
2023-03-21T21:02:19.352Z,601.00
2023-03-21T21:06:18.349Z,599.00
2023-03-21T21:10:18.280Z,602.00
2023-03-21T21:14:18.272Z,591.00
2023-03-21T21:18:18.460Z,593.00
2023-03-21T21:22:18.168Z,592.00
2023-03-21T21:26:18.111Z,591.00
2023-03-21T21:30:18.136Z,587.00
2023-03-21T21:34:18.202Z,590.00
2023-03-21T21:38:18.282Z,591.00
2023-03-21T21:42:18.348Z,586.00
2023-03-21T21:46:18.502Z,585.00
2023-03-21T21:50:19.858Z,591.00
2023-03-21T21:54:18.716Z,591.00
2023-03-21T21:58:18.432Z,586.00
2023-03-21T22:02:18.389Z,583.00
2023-03-21T22:06:18.361Z,576.00
2023-03-21T22:10:18.400Z,572.00
2023-03-21T22:14:18.312Z,582.00
2023-03-21T22:18:18.234Z,580.00
2023-03-21T22:22:18.219Z,581.00
2023-03-21T22:26:18.249Z,588.00
2023-03-21T22:30:18.128Z,575.00
2023-03-21T22:34:18.086Z,574.00
2023-03-21T22:38:18.077Z,570.00
2023-03-21T22:42:18.043Z,587.00
2023-03-21T22:46:18.105Z,589.00
2023-03-21T22:50:17.953Z,598.00
2023-03-21T22:54:17.982Z,599.00
2023-03-21T22:58:17.918Z,594.00
2023-03-21T23:02:18.094Z,613.00
2023-03-21T23:06:18.035Z,606.00
2023-03-21T23:10:18.193Z,604.00
2023-03-21T23:14:18.264Z,610.00
2023-03-21T23:18:18.389Z,608.00
2023-03-21T23:22:18.532Z,610.00
2023-03-21T23:26:18.607Z,610.00
2023-03-21T23:30:18.684Z,607.00
2023-03-21T23:34:18.874Z,618.00
2023-03-21T23:38:18.880Z,610.00
2023-03-21T23:42:19.021Z,611.00
2023-03-21T23:46:19.121Z,616.00
2023-03-21T23:50:26.192Z,618.00
2023-03-21T23:54:19.195Z,620.00
2023-03-21T23:58:19.583Z,613.00
